NCAR-RAP Real-Time Weather Data

Output produced by METARs form (23 April 2018  23:15 UTC)
found at http://weather.rap.ucar.edu/surface/
 
KIAD 232252Z 15013G18KT 10SM SCT070 OVC160 17/06 A3034 RMK AO2 SLP274 T01670061 $
KIAD 232152Z 16009G20KT 120V180 10SM BKN070 BKN160 OVC240 19/06 A3034 RMK AO2 SLP273 T01890061
KIAD 232052Z 15011G18KT 10SM BKN065 18/06 A3033 RMK AO2 SLP269 T01830061 56020
KIAD 231952Z 13009G19KT 10SM BKN060 BKN250 21/06 A3034 RMK AO2 SLP272 T02060061
KIAD 231852Z 15010KT 10SM BKN060 BKN250 20/07 A3036 RMK AO2 SLP280 T02000072
KIAD 231752Z 16012G19KT 10SM SCT060 BKN250 19/07 A3039 RMK AO2 SLP289 T01940067 10200 20083 58010
KIAD 231652Z 18011KT 10SM BKN250 19/06 A3039 RMK AO2 SLP292 T01940056
KIAD 231552Z 15007G15KT 10SM FEW070 BKN250 18/06 A3041 RMK AO2 SLP297 T01780056
KIAD 231452Z 15007KT 10SM CLR 17/07 A3042 RMK AO2 SLP299 T01670072 58002 $
KIAD 231352Z 13006KT 10SM FEW070 BKN250 15/07 A3042 RMK AO2 SLP302 T01500072 $
KIAD 231252Z VRB04KT 10SM FEW065 BKN250 12/06 A3043 RMK AO2 SLP303 T01220056 $
KIAD 231152Z 00000KT 10SM SCT070 BKN250 08/05 A3042 RMK AO2 SLP302 T00830050 10106 20056 53011
KIAD 231052Z 00000KT 10SM SCT070 BKN250 07/04 A3041 RMK AO2 SLP298 T00720039
KIAD 230952Z 00000KT 10SM SCT070 BKN250 06/03 A3040 RMK AO2 SLP293 T00560028
KIAD 230852Z 00000KT 10SM SCT080 BKN250 07/04 A3039 RMK AO2 SLP291 T00670039 56003
KIAD 230752Z 15003KT 10SM FEW070 SCT090 08/02 A3039 RMK AO2 SLP290 T00830022
KIAD 230652Z 12005KT 10SM FEW065 BKN090 09/03 A3039 RMK AO2 SLP289 T00940028
KIAD 230552Z 12004KT 10SM SCT065 BKN090 11/02 A3040 RMK AO2 SLP293 T01060022 10150 20106 50007
KIAD 230452Z 13004KT 10SM BKN065 BKN080 11/02 A3041 RMK AO2 SLP296 T01110017 402000067
KIAD 230352Z 14004KT 10SM BKN065 BKN080 12/01 A3039 RMK AO2 SLP291 T01170011
KIAD 230252Z 13005KT 10SM OVC065 12/02 A3038 RMK AO2 SLP286 T01220017 51017
KIAD 230152Z 13005KT 10SM BKN250 12/03 A3037 RMK AO2 SLP283 T01220028
KIAD 230052Z 13005KT 10SM FEW065 FEW100 SCT250 13/03 A3035 RMK AO2 SLP277 T01330033
KIAD 222352Z 12007KT 10SM FEW065 SCT100 SCT250 15/03 A3033 RMK AO2 SLP270 T01500033 10200 20150 53008
KIAD 222252Z 10011KT 10SM BKN065 BKN140 OVC250 17/04 A3031 RMK AO2 SLP263 T01670039
KIAD 222152Z 11010KT 10SM SCT060 BKN080 OVC130 18/05 A3030 RMK AO2 SLP261 T01780050
KIAD 222052Z 13008KT 10SM BKN060 OVC120 18/06 A3031 RMK AO2 SLP261 T01780056 56012
KIAD 221952Z 11009KT 10SM BKN060 BKN120 OVC250 19/06 A3031 RMK AO2 SLP263 T01940056
KIAD 221852Z VRB05KT 10SM SCT060 BKN120 BKN250 19/04 A3033 RMK AO2 SLP269 T01890044
KIAD 221752Z VRB06KT 10SM SCT055 SCT150 BKN250 19/06 A3034 RMK AO2 SLP274 T01890056 10194 20089 57014
KIAD 221652Z 14012KT 10SM FEW050 SCT140 BKN250 18/06 A3036 RMK AO2 SLP280 T01780056
KIAD 221552Z 10007KT 10SM FEW140 BKN250 17/05 A3037 RMK AO2 SLP282 T01670050
KIAD 221452Z 11009KT 10SM BKN250 16/06 A3038 RMK AO2 SLP288 T01560061 58005
KIAD 221352Z VRB05KT 10SM FEW120 BKN250 13/06 A3039 RMK AO2 SLP292 T01280061
KIAD 221252Z 10004KT 10SM FEW120 BKN250 11/06 A3040 RMK AO2 SLP295 T01110056
KIAD 221152Z 07005KT 10SM SCT120 BKN250 09/04 A3040 RMK AO2 SLP294 T00890044 10094 20067 53009
KIAD 221052Z 13003KT 10SM SCT120 BKN250 07/04 A3039 RMK AO2 SLP290 T00720039
KIAD 220952Z 15004KT 10SM BKN120 OVC250 08/03 A3037 RMK AO2 SLP285 T00780033
KIAD 220852Z 18003KT 10SM BKN120 OVC220 08/03 A3037 RMK AO2 SLP285 T00830028 56002
KIAD 220752Z 18006KT 10SM BKN120 OVC230 09/03 A3037 RMK AO2 SLP284 T00890028
KIAD 220652Z 19004KT 10SM BKN130 OVC220 08/03 A3037 RMK AO2 SLP283 T00830028
KIAD 220552Z 00000KT 10SM OVC130 09/03 A3038 RMK AO2 SLP287 T00890033 10128 20078 50003
KIAD 220452Z 00000KT 10SM OVC130 09/04 A3038 RMK AO2 SLP287 T00890039 401721011
KIAD 220352Z 22003KT 10SM OVC140 08/03 A3037 RMK AO2 SLP285 T00830028
KIAD 220252Z 14003KT 10SM FEW100 OVC140 09/01 A3037 RMK AO2 SLP284 T00940011 51009
KIAD 220152Z 11003KT 10SM BKN120 BKN200 08/02 A3037 RMK AO2 SLP283 T00830022
KIAD 220052Z 06005KT 10SM FEW120 BKN200 11/M02 A3036 RMK AO2 SLP280 T01061017
KIAD 212352Z 07005KT 10SM FEW100 BKN150 BKN250 12/M01 A3034 RMK AO2 SLP275 T01221011 10172 20122 53000
KIAD 212252Z COR 00000KT 10SM FEW100 BKN150 BKN250 16/M05 A3033 RMK AO2 SLP273 T01561050
KIAD 212152Z 00000KT 10SM FEW110 BKN150 BKN250 17/M06 A3034 RMK AO2 SLP274 T01671056
KIAD 212052Z 27003KT 10SM SCT150 OVC250 16/M05 A3034 RMK AO2 SLP274 T01611050 56020
KIAD 211952Z 00000KT 10SM SCT160 BKN250 16/M02 A3035 RMK AO2 SLP279 T01611022
KIAD 211852Z 30006KT 10SM FEW200 BKN250 16/M03 A3038 RMK AO2 SLP288 T01561028
KIAD 211752Z VRB04KT 10SM FEW200 BKN250 14/M03 A3040 RMK AO2 SLP294 T01391033 10139 20039 58030
KIAD 211652Z VRB05KT 10SM BKN250 12/M02 A3043 RMK AO2 SLP306 T01221022
KIAD 211552Z VRB04KT 10SM BKN250 12/M02 A3046 RMK AO2 SLP315 T01171022
KIAD 211452Z 33004KT 10SM BKN250 11/M02 A3049 RMK AO2 SLP325 T01061022 50000
KIAD 211352Z 32003KT 10SM BKN250 09/M03 A3050 RMK AO2 SLP329 T00891028
KIAD 211252Z 00000KT 10SM BKN250 07/M02 A3050 RMK AO2 SLP328 T00721022
KIAD 211152Z 00000KT 9SM BKN250 04/00 A3049 RMK AO2 SLP326 T00390000 10067 21011 53014